createdAt,value
2022-09-12T00:01:42.392Z,20.27
2022-09-12T00:04:14.664Z,20.13
2022-09-12T00:06:46.771Z,20.01
2022-09-12T00:09:19.083Z,19.99
2022-09-12T00:11:51.193Z,19.98
2022-09-12T00:14:23.304Z,20.01
2022-09-12T00:16:58.509Z,19.99
2022-09-12T00:19:31.530Z,19.97
2022-09-12T00:22:03.625Z,19.95
2022-09-12T00:24:35.761Z,19.97
2022-09-12T00:27:08.099Z,20.02
2022-09-12T00:29:40.180Z,20.07
2022-09-12T00:32:12.256Z,20.12
2022-09-12T00:34:44.275Z,20.18
2022-09-12T00:37:16.742Z,20.23
2022-09-12T00:39:48.940Z,20.27
2022-09-12T00:42:21.033Z,20.32
2022-09-12T00:44:54.741Z,20.31
2022-09-12T00:47:31.748Z,20.32
2022-09-12T00:50:09.214Z,20.33
2022-09-12T00:52:45.934Z,20.35
2022-09-12T00:55:22.457Z,20.33
2022-09-12T00:57:58.922Z,20.33
2022-09-12T01:00:31.903Z,20.33
2022-09-12T01:03:06.739Z,20.34
2022-09-12T01:05:45.179Z,20.35
2022-09-12T01:08:18.223Z,20.36
2022-09-12T01:10:50.623Z,20.37
2022-09-12T01:13:23.630Z,20.37
2022-09-12T01:15:55.967Z,20.36
2022-09-12T01:18:35.576Z,20.34
2022-09-12T01:21:19.945Z,20.24
2022-09-12T01:24:30.470Z,20.23
2022-09-12T01:27:35.058Z,20.21
2022-09-12T01:30:48.763Z,20.20
2022-09-12T01:33:40.949Z,20.19
2022-09-12T01:36:39.510Z,20.20
2022-09-12T01:39:22.955Z,20.19
2022-09-12T01:41:59.505Z,20.19
2022-09-12T01:44:41.287Z,20.20
2022-09-12T01:47:20.004Z,20.19
2022-09-12T01:49:58.946Z,20.19
2022-09-12T01:52:35.645Z,20.18
2022-09-12T01:55:14.899Z,20.10
2022-09-12T01:57:50.741Z,20.07
2022-09-12T02:00:23.092Z,20.02
2022-09-12T02:03:02.986Z,20.01
2022-09-12T02:05:38.198Z,19.96
2022-09-12T02:08:14.450Z,19.89
2022-09-12T02:10:51.942Z,19.85
2022-09-12T02:13:30.973Z,19.83
2022-09-12T02:16:10.199Z,19.82
2022-09-12T02:18:46.287Z,19.82
2022-09-12T02:21:21.003Z,19.82
2022-09-12T02:23:58.776Z,19.83
2022-09-12T02:26:38.149Z,19.82
2022-09-12T02:29:10.299Z,19.84
2022-09-12T02:31:46.866Z,19.84
2022-09-12T02:34:34.352Z,19.83
2022-09-12T02:37:15.259Z,19.79
2022-09-12T02:39:47.397Z,19.77
2022-09-12T02:42:19.549Z,19.75
2022-09-12T02:44:52.643Z,19.72
2022-09-12T02:47:29.736Z,19.67
2022-09-12T02:50:05.267Z,19.65
2022-09-12T02:52:36.903Z,19.56
2022-09-12T02:55:11.557Z,19.44
2022-09-12T02:57:43.696Z,19.34
2022-09-12T03:00:17.428Z,19.23
2022-09-12T03:03:03.256Z,19.19
2022-09-12T03:05:40.499Z,19.10
2022-09-12T03:08:57.520Z,18.98
2022-09-12T03:11:47.447Z,18.91
2022-09-12T03:14:30.443Z,18.82
2022-09-12T03:17:09.143Z,18.74
2022-09-12T03:19:51.099Z,18.69
2022-09-12T03:22:29.296Z,18.70
2022-09-12T03:25:10.563Z,18.72
2022-09-12T03:27:48.376Z,18.74
2022-09-12T03:30:20.680Z,18.76
2022-09-12T03:32:55.007Z,18.78
2022-09-12T03:35:28.013Z,18.77
2022-09-12T03:38:00.126Z,18.72
2022-09-12T03:40:32.183Z,18.74
2022-09-12T03:43:04.556Z,18.70
2022-09-12T03:45:37.205Z,18.70
2022-09-12T03:48:09.427Z,18.69
2022-09-12T03:50:41.475Z,18.62
2022-09-12T03:53:17.068Z,18.56
2022-09-12T03:55:49.513Z,18.45
2022-09-12T03:58:21.719Z,18.36
2022-09-12T04:00:53.823Z,18.28
2022-09-12T04:03:26.015Z,18.28
2022-09-12T04:06:00.348Z,18.30
2022-09-12T04:08:32.451Z,18.35
2022-09-12T04:11:10.076Z,18.34
2022-09-12T04:13:44.419Z,18.33
2022-09-12T04:16:17.669Z,18.33
2022-09-12T04:18:49.964Z,18.35
2022-09-12T04:21:23.403Z,18.34
2022-09-12T04:23:55.512Z,18.33
2022-09-12T04:26:29.904Z,18.26
2022-09-12T04:29:02.051Z,18.15
2022-09-12T04:31:34.210Z,18.09
2022-09-12T04:34:06.999Z,18.10
2022-09-12T04:36:39.183Z,18.08
2022-09-12T04:39:11.808Z,18.03
2022-09-12T04:41:43.897Z,18.04
2022-09-12T04:44:17.171Z,18.06
2022-09-12T04:46:49.800Z,18.08
2022-09-12T04:49:21.848Z,18.07
2022-09-12T04:51:56.157Z,17.99
2022-09-12T04:54:28.586Z,17.99
2022-09-12T04:57:00.691Z,18.00
2022-09-12T04:59:33.268Z,17.98
2022-09-12T05:02:06.000Z,18.00
2022-09-12T05:04:38.194Z,18.00
2022-09-12T05:07:10.362Z,17.96
2022-09-12T05:09:42.751Z,18.01
2022-09-12T05:12:15.022Z,18.08
2022-09-12T05:14:47.070Z,18.14
2022-09-12T05:17:19.490Z,18.20
2022-09-12T05:19:51.693Z,18.26
2022-09-12T05:22:23.894Z,18.28
2022-09-12T05:24:56.041Z,18.33
2022-09-12T05:27:28.475Z,18.43
2022-09-12T05:30:00.519Z,18.56
2022-09-12T05:32:35.737Z,18.69
2022-09-12T05:35:08.653Z,18.81
2022-09-12T05:37:41.187Z,18.89
2022-09-12T05:40:17.993Z,18.98
2022-09-12T05:42:50.099Z,19.10
2022-09-12T05:45:22.425Z,19.21
2022-09-12T05:47:55.451Z,19.33
2022-09-12T05:50:27.599Z,19.39
2022-09-12T05:53:00.215Z,19.48
2022-09-12T05:55:33.322Z,19.59
2022-09-12T05:58:05.415Z,19.62
2022-09-12T06:00:37.501Z,19.67
2022-09-12T06:03:09.712Z,19.76
2022-09-12T06:05:41.783Z,19.76
2022-09-12T06:08:13.957Z,19.71
2022-09-12T06:10:46.058Z,19.83
2022-09-12T06:13:18.170Z,20.04
2022-09-12T06:15:50.255Z,20.21
2022-09-12T06:18:22.460Z,20.29
2022-09-12T06:20:54.525Z,20.32
2022-09-12T06:23:27.796Z,20.36
2022-09-12T06:25:59.931Z,20.52
2022-09-12T06:28:32.714Z,20.74
2022-09-12T06:31:09.736Z,20.98
2022-09-12T06:33:44.281Z,21.25
2022-09-12T06:36:18.545Z,21.56
2022-09-12T06:38:54.816Z,21.87
2022-09-12T06:41:28.667Z,22.18
2022-09-12T06:44:01.919Z,22.46
2022-09-12T06:46:34.492Z,22.62
2022-09-12T06:49:06.614Z,22.71
2022-09-12T06:51:38.821Z,22.86
2022-09-12T06:54:13.454Z,22.98
2022-09-12T06:56:46.133Z,23.01
2022-09-12T06:59:18.445Z,23.09
2022-09-12T07:01:50.946Z,23.33
2022-09-12T07:04:23.037Z,23.70
2022-09-12T07:06:55.095Z,24.07
2022-09-12T07:09:27.382Z,24.06
2022-09-12T07:11:59.459Z,24.03
2022-09-12T07:14:31.617Z,24.07
2022-09-12T07:17:03.723Z,24.15
2022-09-12T07:19:36.163Z,24.14
2022-09-12T07:22:08.277Z,24.25
2022-09-12T07:24:41.355Z,24.35
2022-09-12T07:27:13.412Z,24.59
2022-09-12T07:29:47.033Z,24.80
2022-09-12T07:32:19.084Z,24.90
2022-09-12T07:34:51.205Z,24.93
2022-09-12T07:37:23.828Z,25.05
2022-09-12T07:39:56.114Z,25.31
2022-09-12T07:42:28.199Z,25.58
2022-09-12T07:45:00.285Z,25.84
2022-09-12T07:47:32.320Z,26.09
2022-09-12T07:50:04.500Z,26.34
2022-09-12T07:52:36.679Z,26.67
2022-09-12T07:55:09.714Z,26.91
2022-09-12T07:57:41.839Z,27.04
2022-09-12T08:00:15.946Z,27.12
2022-09-12T08:02:51.868Z,27.21
2022-09-12T08:05:24.053Z,27.38
2022-09-12T08:07:57.846Z,27.57
2022-09-12T08:10:30.122Z,27.67
2022-09-12T08:13:03.182Z,27.93
2022-09-12T08:15:35.878Z,28.31
2022-09-12T08:18:08.192Z,28.49
2022-09-12T08:20:40.300Z,28.74
2022-09-12T08:23:12.529Z,28.93
2022-09-12T08:25:45.800Z,29.01
2022-09-12T08:28:17.915Z,29.27
2022-09-12T08:30:50.177Z,29.30
2022-09-12T08:33:22.450Z,29.24
2022-09-12T08:35:54.592Z,29.36
2022-09-12T08:38:26.712Z,29.61
2022-09-12T08:41:05.833Z,29.77
2022-09-12T08:43:56.631Z,29.99
2022-09-12T08:46:37.243Z,30.23
2022-09-12T08:49:14.644Z,30.25
2022-09-12T08:51:47.243Z,30.11
2022-09-12T08:54:26.911Z,29.74
2022-09-12T08:57:04.049Z,29.50
2022-09-12T08:59:39.816Z,29.53
2022-09-12T09:02:34.638Z,29.69
2022-09-12T09:05:20.339Z,29.90
2022-09-12T09:08:11.504Z,30.08
2022-09-12T09:10:53.140Z,29.99
2022-09-12T09:13:57.579Z,30.08
2022-09-12T09:16:36.334Z,30.13
2022-09-12T09:19:14.055Z,29.85
2022-09-12T09:21:51.099Z,29.50
2022-09-12T09:24:29.124Z,29.06
2022-09-12T09:27:23.555Z,29.06
2022-09-12T09:29:59.700Z,29.21
2022-09-12T09:32:36.751Z,29.57
2022-09-12T09:35:20.091Z,29.62
2022-09-12T14:22:01.983Z,23.88
2022-09-12T14:24:31.974Z,23.71
2022-09-12T14:27:00.791Z,23.68
2022-09-12T14:29:30.195Z,23.66
2022-09-12T14:32:03.543Z,23.68
2022-09-12T14:34:32.466Z,23.70
2022-09-12T14:37:07.210Z,23.71
2022-09-12T14:39:41.438Z,23.71
2022-09-12T14:42:16.366Z,23.69
2022-09-12T14:44:56.006Z,23.70
2022-09-12T14:47:27.507Z,23.68
2022-09-12T14:49:56.675Z,23.65
2022-09-12T14:52:29.200Z,23.60
2022-09-12T14:55:00.145Z,23.60
2022-09-12T14:57:41.750Z,23.61
2022-09-12T15:00:19.832Z,23.67
2022-09-12T15:02:51.474Z,23.70
2022-09-12T15:05:26.384Z,23.75
2022-09-12T15:08:00.541Z,23.79
2022-09-12T15:10:33.996Z,23.84
2022-09-12T15:13:14.083Z,23.89
2022-09-12T15:15:45.282Z,23.92
2022-09-12T15:18:14.744Z,23.92
2022-09-12T15:20:44.949Z,23.89
2022-09-12T15:23:20.411Z,23.86
2022-09-12T15:25:50.335Z,23.83
2022-09-12T15:28:24.070Z,23.82
2022-09-12T15:30:55.715Z,23.83
2022-09-12T15:33:26.253Z,23.86
2022-09-12T15:35:54.986Z,23.89
2022-09-12T15:38:26.494Z,23.91
2022-09-12T15:40:56.168Z,23.90
2022-09-12T15:43:25.964Z,23.88
2022-09-12T15:45:54.810Z,23.88
2022-09-12T15:48:24.069Z,23.88
2022-09-12T15:50:52.881Z,23.86
2022-09-12T15:53:21.652Z,23.85
2022-09-12T15:55:50.393Z,23.85
2022-09-12T15:58:19.641Z,23.83
2022-09-12T16:00:48.425Z,23.81
2022-09-12T16:03:22.624Z,23.80
2022-09-12T16:05:55.012Z,23.79
2022-09-12T16:08:23.931Z,23.80
2022-09-12T16:10:56.036Z,23.79
2022-09-12T16:13:25.542Z,23.76
2022-09-12T16:15:57.780Z,23.77
2022-09-12T16:18:27.341Z,23.77
2022-09-12T16:20:57.429Z,23.76
2022-09-12T16:23:26.123Z,23.75
2022-09-12T16:25:58.862Z,23.74
2022-09-12T16:28:28.622Z,23.72
2022-09-12T16:30:57.967Z,23.69
2022-09-12T16:33:28.279Z,23.65
2022-09-12T16:36:02.704Z,23.63
2022-09-12T16:38:32.051Z,23.62
2022-09-12T16:41:05.296Z,23.60
2022-09-12T16:43:36.425Z,23.59
2022-09-12T16:46:10.488Z,23.57
2022-09-12T16:48:46.925Z,23.55
2022-09-12T16:51:22.141Z,23.52
2022-09-12T16:53:51.560Z,23.48
2022-09-12T16:56:20.706Z,23.41
2022-09-12T16:58:49.745Z,23.37
2022-09-12T17:01:21.008Z,23.35
2022-09-12T17:03:53.779Z,23.31
2022-09-12T17:06:24.528Z,23.27
2022-09-12T17:08:55.544Z,23.23
2022-09-12T17:11:26.519Z,23.17
2022-09-12T17:14:05.845Z,23.14
2022-09-12T17:16:42.444Z,23.09
2022-09-12T17:19:17.522Z,23.05
2022-09-12T17:21:48.146Z,22.98
2022-09-12T17:24:17.682Z,22.93
2022-09-12T17:26:46.582Z,22.84
2022-09-12T17:29:16.210Z,22.80
2022-09-12T17:31:45.832Z,22.74
2022-09-12T17:34:15.783Z,22.67
2022-09-12T17:36:47.658Z,22.61
2022-09-12T17:39:16.930Z,22.57
2022-09-12T17:41:45.791Z,22.53
2022-09-12T17:44:15.424Z,22.51
2022-09-12T17:46:45.515Z,22.47
2022-09-12T17:49:16.418Z,22.44
2022-09-12T17:51:45.919Z,22.37
2022-09-12T17:54:17.539Z,22.32
2022-09-12T17:56:49.158Z,22.25
2022-09-12T17:59:20.884Z,22.18
2022-09-12T18:02:07.976Z,22.14
2022-09-12T18:04:36.991Z,22.05
2022-09-12T18:07:07.031Z,22.06
2022-09-12T18:09:36.515Z,22.04
2022-09-12T18:12:07.115Z,22.01
2022-09-12T18:14:37.076Z,21.96
2022-09-12T18:17:07.951Z,21.89
2022-09-12T18:19:37.613Z,21.83
2022-09-12T18:22:07.017Z,21.81
2022-09-12T18:24:36.176Z,21.80
2022-09-12T18:27:05.649Z,21.78
2022-09-12T18:29:34.716Z,21.76
2022-09-12T18:32:03.909Z,21.72
2022-09-12T18:34:32.732Z,21.69
2022-09-12T18:37:04.679Z,21.67
2022-09-12T18:39:33.433Z,21.63
2022-09-12T18:42:02.241Z,21.57
2022-09-12T18:44:31.016Z,21.53
2022-09-12T18:46:59.862Z,21.52
2022-09-12T18:49:28.683Z,21.50
2022-09-12T18:51:57.734Z,21.51
2022-09-12T18:54:26.616Z,21.51
2022-09-12T18:56:55.485Z,21.52
2022-09-12T18:59:24.195Z,21.52
2022-09-12T19:01:52.978Z,21.49
2022-09-12T19:04:22.129Z,21.53
2022-09-12T19:06:51.672Z,21.53
2022-09-12T19:09:21.459Z,21.53
2022-09-12T19:11:50.377Z,21.52
2022-09-12T19:14:22.098Z,21.51
2022-09-12T19:16:52.247Z,21.44
2022-09-12T19:19:21.547Z,21.45
2022-09-12T19:21:50.324Z,21.43
2022-09-12T19:24:21.150Z,21.40
2022-09-12T19:26:50.460Z,21.36
2022-09-12T19:29:19.456Z,21.33
2022-09-12T19:31:48.541Z,21.30
2022-09-12T19:34:17.431Z,21.26
2022-09-12T19:36:47.346Z,21.22
2022-09-12T19:39:18.925Z,21.19
2022-09-12T19:41:48.129Z,21.13
2022-09-12T19:44:18.607Z,21.08
2022-09-12T19:46:47.422Z,21.05
2022-09-12T19:49:16.418Z,21.02
2022-09-12T19:51:45.134Z,20.99
2022-09-12T19:54:13.838Z,20.97
2022-09-12T19:56:42.963Z,20.95
2022-09-12T19:59:12.118Z,20.91
2022-09-12T20:01:41.263Z,20.88
2022-09-12T20:04:10.187Z,20.82
2022-09-12T20:06:39.065Z,20.77
2022-09-12T20:09:08.014Z,20.73
2022-09-12T20:11:36.845Z,20.69
2022-09-12T20:14:05.614Z,20.65
2022-09-12T20:16:34.892Z,20.59
2022-09-12T20:19:07.861Z,20.53
2022-09-12T20:21:37.387Z,20.51
2022-09-12T20:24:10.154Z,20.47
2022-09-12T20:26:40.066Z,20.41
2022-09-12T20:29:10.089Z,20.42
2022-09-12T20:31:41.149Z,20.39
2022-09-12T20:34:15.690Z,20.36
2022-09-12T20:36:44.453Z,20.32
2022-09-12T20:39:15.280Z,20.23
2022-09-12T20:41:44.033Z,20.11
2022-09-12T20:44:13.003Z,20.01
2022-09-12T20:46:41.972Z,19.83
2022-09-12T20:49:10.783Z,19.71
2022-09-12T20:51:39.583Z,19.58
2022-09-12T20:54:09.707Z,19.47
2022-09-12T20:56:38.871Z,19.35
2022-09-12T20:59:10.012Z,19.30
2022-09-12T21:01:39.238Z,19.20
2022-09-12T21:04:10.783Z,19.02
2022-09-12T21:06:43.977Z,18.93
2022-09-12T21:09:14.401Z,18.87
2022-09-12T21:11:44.217Z,18.79
2022-09-12T21:14:13.985Z,18.69
2022-09-12T21:16:43.824Z,18.53
2022-09-12T21:19:13.518Z,18.40
2022-09-12T21:21:43.415Z,18.33
2022-09-12T21:24:15.046Z,18.25
2022-09-12T21:26:44.721Z,18.18
2022-09-12T21:29:13.592Z,18.14
2022-09-12T21:31:43.678Z,18.05
2022-09-12T21:34:12.443Z,18.04
2022-09-12T21:36:41.276Z,18.03
2022-09-12T21:39:10.207Z,18.01
2022-09-12T21:41:38.937Z,17.99
2022-09-12T21:44:08.050Z,17.92
2022-09-12T21:46:37.080Z,17.86
2022-09-12T21:49:06.128Z,17.80
2022-09-12T21:51:34.920Z,17.72
2022-09-12T21:54:03.785Z,17.63
2022-09-12T21:56:32.499Z,17.57
2022-09-12T21:59:01.366Z,17.54
2022-09-12T22:01:30.138Z,17.53
2022-09-12T22:03:58.820Z,17.50
2022-09-12T22:06:27.694Z,17.50
2022-09-12T22:08:56.416Z,17.46
2022-09-12T22:11:25.509Z,17.41
2022-09-12T22:13:54.451Z,17.38
2022-09-12T22:16:23.382Z,17.36
2022-09-12T22:18:52.515Z,17.37
2022-09-12T22:21:23.788Z,17.39
2022-09-12T22:24:10.505Z,17.37
2022-09-12T22:26:43.854Z,17.34
2022-09-12T22:29:13.083Z,17.33
2022-09-12T22:31:41.975Z,17.33
2022-09-12T22:34:10.741Z,17.30
2022-09-12T22:36:39.852Z,17.28
2022-09-12T22:39:09.371Z,17.21
2022-09-12T22:41:38.076Z,17.14
2022-09-12T22:44:07.027Z,17.11
2022-09-12T22:46:35.903Z,17.06
2022-09-12T22:49:05.331Z,17.03
2022-09-12T22:51:34.758Z,16.97
2022-09-12T22:54:05.067Z,16.91
2022-09-12T22:56:33.849Z,16.87
2022-09-12T22:59:02.662Z,16.86
2022-09-12T23:01:31.657Z,16.82
2022-09-12T23:04:00.848Z,16.78
2022-09-12T23:06:30.466Z,16.75
2022-09-12T23:08:59.155Z,16.74
2022-09-12T23:11:27.999Z,16.73
2022-09-12T23:13:56.718Z,16.76
2022-09-12T23:16:27.710Z,16.79
2022-09-12T23:18:56.440Z,16.78
2022-09-12T23:21:25.167Z,16.77
2022-09-12T23:23:55.631Z,16.75
2022-09-12T23:26:27.576Z,16.70
2022-09-12T23:28:59.144Z,16.67
2022-09-12T23:31:29.891Z,16.65
2022-09-12T23:34:01.281Z,16.62
2022-09-12T23:36:30.495Z,16.57
2022-09-12T23:38:59.248Z,16.52
2022-09-12T23:41:28.739Z,16.48
2022-09-12T23:43:57.607Z,16.45
2022-09-12T23:46:26.738Z,16.44
2022-09-12T23:48:55.444Z,16.39
2022-09-12T23:51:24.215Z,16.43
2022-09-12T23:53:52.951Z,16.42
2022-09-12T23:56:21.978Z,16.41
2022-09-12T23:58:50.941Z,16.42
